Treetops, Michigan
Current Conditions -  °F | °C
As of 12:53 AM on Sunday 23 Nov 2014 (Local Time) from KGLR Reporting Station
Haze Haze  
Wind Chill: 30°   Ceiling: 600
Heat Index: 37°   Visibility: 4mi
Dew Point: 36°   Wind: 9mph
Humidity: 96%   Direction: 230°SW
Pressure: 29.82"   Gusts: NA
Location:  44.9934°N, 84.6766°W
Report Text: KGLR 230553Z AUTO 23008KT 4SM BR BKN006 OVC021 03/02 A2982 RMK AO2 SLP110 T00280022 10033 20022 53013
Loading
Personal Weather Stations






























Interactive Weather Map New forecast layout! Learn more

10-Day Weather Forecast

Advertisements
Track Severe Weather on mobile